Time;durP1;ratioP1;P1;durP2;ratioP2;P2;SDS_P1;SDS_P2;PMS_P1;PMS_P2;Temp;Humidity;BMP_temperature;BMP_pressure;BME280_temperature;BME280_humidity;BME280_pressure;Samples;Min_cycle;Max_cycle;Signal;HPM_P1;HPM_P2
2023/01/22 00:01:03;;;;;;;15.18;8.95;;;0.50;99.90;;;;;;15134473;23;20332;-36
2023/01/22 00:07:05;;;;;;;15.30;9.00;;;0.50;99.90;;;;;;15201907;23;20025;-37
2023/01/22 00:13:07;;;;;;;18.52;9.63;;;0.50;99.90;;;;;;15175449;23;20355;-36
2023/01/22 00:19:10;;;;;;;15.05;8.80;;;0.40;99.90;;;;;;15201797;23;20026;-35
2023/01/22 00:25:12;;;;;;;14.18;8.35;;;0.40;99.90;;;;;;15198715;23;20026;-36
2023/01/22 00:31:15;;;;;;;13.85;8.80;;;0.30;99.90;;;;;;15197211;23;20108;-36
2023/01/22 00:37:19;;;;;;;16.05;9.68;;;0.30;99.90;;;;;;15200399;23;20030;-36
2023/01/22 00:43:21;;;;;;;15.27;8.65;;;0.20;99.90;;;;;;15200772;23;20026;-36
2023/01/22 00:49:23;;;;;;;17.50;10.80;;;0.20;99.90;;;;;;15197867;23;20403;-36
2023/01/22 00:55:25;;;;;;;17.35;10.18;;;0.20;99.90;;;;;;15199635;23;20022;-37
2023/01/22 01:01:26;;;;;;;17.15;11.02;;;0.20;99.90;;;;;;15170219;23;20108;-36
2023/01/22 01:07:28;;;;;;;19.77;10.65;;;0.20;99.90;;;;;;15199585;23;20513;-36
2023/01/22 01:13:36;;;;;;;21.85;11.13;;;0.20;99.90;;;;;;15198798;23;20026;-36
2023/01/22 01:19:38;;;;;;;18.02;11.10;;;0.10;99.90;;;;;;15196223;23;20017;-35
2023/01/22 01:25:41;;;;;;;18.80;10.85;;;0.20;99.90;;;;;;15205725;23;20471;-36
2023/01/22 01:31:43;;;;;;;19.00;10.35;;;0.10;99.90;;;;;;15203671;23;20029;-36
2023/01/22 01:37:45;;;;;;;17.35;11.25;;;0.20;99.90;;;;;;15206477;23;20025;-36
2023/01/22 01:44:12;;;;;;;16.15;10.48;;;0.20;99.90;;;;;;15202042;23;20034;-37
2023/01/22 01:50:17;;;;;;;17.90;11.38;;;0.20;99.90;;;;;;15197363;23;20033;-36
2023/01/22 01:56:25;;;;;;;18.80;11.38;;;0.20;99.90;;;;;;15201719;23;20025;-36
2023/01/22 02:02:27;;;;;;;19.08;11.13;;;0.10;99.90;;;;;;15176531;23;20065;-36
2023/01/22 02:08:29;;;;;;;19.08;10.18;;;0.10;99.90;;;;;;15204867;23;20029;-36
2023/01/22 02:14:37;;;;;;;18.67;10.88;;;0.20;99.90;;;;;;15201125;23;20030;-36
2023/01/22 02:20:39;;;;;;;17.25;10.60;;;0.20;99.90;;;;;;15177285;23;20081;-36
2023/01/22 02:26:44;;;;;;;18.20;11.13;;;0.20;99.90;;;;;;15198736;23;20033;-36
2023/01/22 02:32:46;;;;;;;18.35;10.23;;;0.20;99.90;;;;;;15203335;23;20026;-37
2023/01/22 02:38:48;;;;;;;14.30;9.48;;;0.20;99.90;;;;;;15200391;23;20342;-36
2023/01/22 02:44:51;;;;;;;16.35;9.82;;;0.20;99.90;;;;;;15195791;23;20114;-37
2023/01/22 02:50:53;;;;;;;14.25;8.52;;;0.20;99.90;;;;;;15201720;23;20073;-36
2023/01/22 02:56:55;;;;;;;14.15;9.05;;;0.20;99.90;;;;;;15200886;23;20022;-36
2023/01/22 03:02:57;;;;;;;15.27;9.82;;;0.20;99.90;;;;;;15201344;23;20025;-36
2023/01/22 03:09:00;;;;;;;16.40;9.90;;;0.20;99.90;;;;;;15202392;23;20033;-36
2023/01/22 03:21:22;;;;;;;14.55;9.05;;;0.20;99.90;;;;;;15201646;23;20097;-35
2023/01/22 03:27:26;;;;;;;14.30;8.82;;;0.20;99.90;;;;;;15197484;23;20089;-36
2023/01/22 03:33:28;;;;;;;16.03;9.50;;;0.20;99.90;;;;;;15200210;23;20030;-36
2023/01/22 03:39:31;;;;;;;14.93;9.13;;;0.40;99.90;;;;;;15203020;23;20578;-37
2023/01/22 03:45:34;;;;;;;14.32;8.77;;;0.30;99.90;;;;;;15201852;23;20399;-36
2023/01/22 03:51:36;;;;;;;15.77;9.00;;;0.20;99.90;;;;;;15198864;23;20022;-36
2023/01/22 03:57:39;;;;;;;16.80;9.48;;;0.30;99.90;;;;;;15200242;23;20132;-36
2023/01/22 04:03:41;;;;;;;13.73;9.65;;;0.30;99.90;;;;;;15177357;23;20030;-36
2023/01/22 04:09:44;;;;;;;16.17;9.98;;;0.20;99.90;;;;;;15203958;23;20030;-36
2023/01/22 04:15:46;;;;;;;14.98;9.57;;;0.20;99.90;;;;;;15170195;23;20049;-36
2023/01/22 04:21:48;;;;;;;14.73;10.32;;;0.20;99.90;;;;;;15205430;23;20338;-36
2023/01/22 04:27:50;;;;;;;15.80;10.18;;;0.30;99.90;;;;;;15203573;23;20086;-36
2023/01/22 04:33:51;;;;;;;14.50;8.63;;;0.30;99.90;;;;;;15201004;23;20033;-36
2023/01/22 04:39:53;;;;;;;12.48;8.75;;;0.30;99.90;;;;;;15197783;23;20034;-36
2023/01/22 04:45:55;;;;;;;12.65;7.93;;;0.30;99.90;;;;;;15201937;23;20022;-36
2023/01/22 04:51:57;;;;;;;14.23;8.57;;;0.20;99.90;;;;;;15201793;23;20164;-37
2023/01/22 04:58:01;;;;;;;11.98;7.65;;;0.20;99.90;;;;;;15206903;23;20018;-37
2023/01/22 05:04:02;;;;;;;12.38;7.80;;;0.20;99.90;;;;;;15204481;23;20036;-36
2023/01/22 05:10:05;;;;;;;12.73;8.30;;;0.20;99.90;;;;;;15199424;23;20049;-36
2023/01/22 05:16:07;;;;;;;11.07;7.28;;;0.20;99.90;;;;;;15164573;23;20151;-36
2023/01/22 05:22:09;;;;;;;10.50;7.32;;;0.20;99.90;;;;;;15205233;23;20026;-35
2023/01/22 05:28:11;;;;;;;12.02;7.88;;;0.20;99.90;;;;;;15202763;23;20512;-36
2023/01/22 05:34:13;;;;;;;12.93;7.85;;;0.20;99.90;;;;;;15199563;23;20128;-36
2023/01/22 05:40:15;;;;;;;12.70;8.70;;;0.20;99.90;;;;;;15200813;23;20376;-36
2023/01/22 05:46:17;;;;;;;16.02;9.27;;;0.20;99.90;;;;;;15201348;23;20033;-36
2023/01/22 05:52:19;;;;;;;12.63;7.57;;;0.30;99.90;;;;;;15205104;23;20022;-36
2023/01/22 05:58:21;;;;;;;12.95;8.85;;;0.20;99.90;;;;;;15202927;23;20100;-36
2023/01/22 06:04:23;;;;;;;13.30;8.63;;;0.30;99.90;;;;;;15203431;23;20036;-37
2023/01/22 06:10:25;;;;;;;12.73;8.95;;;0.20;99.90;;;;;;15199417;23;20097;-36
2023/01/22 06:16:27;;;;;;;13.68;8.38;;;0.30;99.90;;;;;;15174668;23;20458;-41
2023/01/22 06:22:29;;;;;;;15.90;9.48;;;0.30;99.90;;;;;;15200087;23;20367;-36
2023/01/22 06:28:31;;;;;;;15.88;8.45;;;0.20;99.90;;;;;;15171231;23;20029;-36
2023/01/22 06:34:33;;;;;;;13.88;9.07;;;0.30;99.90;;;;;;15199805;23;20034;-36
2023/01/22 06:40:35;;;;;;;18.33;11.00;;;0.40;99.90;;;;;;15204130;23;20026;-36
2023/01/22 06:46:37;;;;;;;16.75;9.85;;;0.30;99.90;;;;;;15175088;23;20340;-36
2023/01/22 06:52:39;;;;;;;17.25;10.93;;;0.30;99.90;;;;;;15173138;23;20054;-36
2023/01/22 06:58:41;;;;;;;14.82;10.07;;;0.30;99.90;;;;;;15200839;23;20026;-36
2023/01/22 07:04:42;;;;;;;17.65;10.05;;;0.30;99.90;;;;;;15200501;23;20053;-37
2023/01/22 07:10:44;;;;;;;19.13;10.95;;;0.30;99.90;;;;;;15195426;23;20093;-36
2023/01/22 07:16:46;;;;;;;19.45;10.60;;;0.30;99.90;;;;;;15196787;23;20391;-36
2023/01/22 07:22:50;;;;;;;16.60;9.77;;;0.30;99.90;;;;;;15203333;23;20022;-36
2023/01/22 07:28:52;;;;;;;15.63;10.05;;;0.40;99.90;;;;;;15197271;23;20018;-36
2023/01/22 07:34:54;;;;;;;18.20;10.30;;;0.30;99.90;;;;;;15166250;23;20124;-36
2023/01/22 07:41:01;;;;;;;14.63;8.65;;;0.40;99.90;;;;;;15200280;23;20018;-37
2023/01/22 07:47:03;;;;;;;19.17;9.32;;;0.40;99.90;;;;;;15195118;23;20026;-36
2023/01/22 07:53:06;;;;;;;15.90;9.23;;;0.40;99.90;;;;;;15201946;23;20045;-36
2023/01/22 07:59:08;;;;;;;21.42;10.65;;;0.50;99.90;;;;;;15199757;23;20026;-35
2023/01/22 08:05:12;;;;;;;17.55;10.25;;;0.50;99.90;;;;;;15200169;23;20096;-37
2023/01/22 08:11:14;;;;;;;;;;;0.50;99.90;;;;;;15190893;23;20022;-36
2023/01/22 08:17:16;;;;;;;16.38;9.88;;;0.50;99.90;;;;;;15192323;23;19944;-36
2023/01/22 08:23:18;;;;;;;13.32;8.18;;;0.50;99.90;;;;;;15171031;23;20530;-37
2023/01/22 08:29:22;;;;;;;14.40;9.13;;;0.50;99.90;;;;;;15200946;23;20022;-36
2023/01/22 08:35:24;;;;;;;13.32;7.85;;;0.60;99.90;;;;;;15194967;23;20026;-35
2023/01/22 08:41:26;;;;;;;14.85;8.07;;;0.60;99.90;;;;;;15202301;23;20455;-36
2023/01/22 08:47:28;;;;;;;17.83;9.32;;;0.60;99.90;;;;;;15205863;23;20025;-36
2023/01/22 08:53:30;;;;;;;14.88;7.28;;;0.70;99.90;;;;;;15202252;23;20026;-35
2023/01/22 08:59:32;;;;;;;12.98;7.38;;;0.70;99.90;;;;;;15204417;23;20057;-36
2023/01/22 09:05:37;;;;;;;11.60;7.82;;;0.80;99.90;;;;;;15201441;23;20054;-36
2023/01/22 09:11:39;;;;;;;14.05;8.25;;;0.80;99.90;;;;;;15197875;23;20104;-36
2023/01/22 09:17:41;;;;;;;11.20;7.32;;;0.80;99.90;;;;;;15170575;23;20022;-36
2023/01/22 09:23:43;;;;;;;12.52;8.65;;;0.80;99.90;;;;;;15200607;23;20116;-35
2023/01/22 09:29:45;;;;;;;16.98;8.95;;;0.80;99.90;;;;;;15203071;23;20021;-36
2023/01/22 09:35:47;;;;;;;14.95;8.65;;;0.80;99.90;;;;;;15201596;23;20030;-36
2023/01/22 09:41:54;;;;;;;16.83;9.77;;;0.90;99.90;;;;;;15201580;23;20028;-35
2023/01/22 09:47:59;;;;;;;11.55;7.85;;;0.90;99.90;;;;;;15199231;23;20022;-36
2023/01/22 09:54:03;;;;;;;15.00;8.30;;;1.00;99.90;;;;;;15202026;23;20039;-35
2023/01/22 10:00:12;;;;;;;13.82;9.65;;;1.00;99.90;;;;;;15205495;23;20025;-36
2023/01/22 10:06:21;;;;;;;17.58;10.32;;;1.00;99.90;;;;;;15137543;23;20018;-36
2023/01/22 10:12:28;;;;;;;18.52;10.52;;;1.00;99.90;;;;;;15199114;23;20026;-36
2023/01/22 10:18:48;;;;;;;18.75;11.32;;;0.90;99.90;;;;;;15194890;23;20026;-36
2023/01/22 10:24:51;;;;;;;14.68;9.02;;;0.90;99.90;;;;;;15200103;23;20018;-36
2023/01/22 10:30:57;;;;;;;14.95;9.82;;;1.00;99.90;;;;;;15171732;23;20033;-36
2023/01/22 10:37:03;;;;;;;16.13;9.52;;;0.90;99.90;;;;;;15175067;23;20033;-35
2023/01/22 10:43:12;;;;;;;12.57;8.48;;;1.10;99.90;;;;;;15202665;23;20025;-35
2023/01/22 10:49:28;;;;;;;12.43;7.60;;;1.20;99.90;;;;;;15192658;23;20018;-36
2023/01/22 10:55:35;;;;;;;17.35;10.15;;;1.20;99.90;;;;;;15198124;23;20026;-36
2023/01/22 11:01:41;;;;;;;16.75;9.75;;;1.20;99.90;;;;;;15203544;23;20109;-35
2023/01/22 11:07:47;;;;;;;16.60;9.90;;;1.30;99.90;;;;;;15202857;23;20077;-36
2023/01/22 11:14:03;;;;;;;15.30;9.52;;;1.50;99.90;;;;;;15199738;23;20161;-35
2023/01/22 11:20:35;;;;;;;15.50;9.70;;;1.60;99.90;;;;;;15197762;23;20509;-36
2023/01/22 11:27:03;;;;;;;12.73;7.93;;;1.60;99.90;;;;;;15138624;23;20358;-36
2023/01/22 11:33:20;;;;;;;18.58;10.15;;;1.60;99.90;;;;;;15201397;23;20029;-36
2023/01/22 11:39:38;;;;;;;16.05;9.18;;;1.60;99.90;;;;;;15197119;23;20029;-36
2023/01/22 11:45:55;;;;;;;16.42;9.68;;;1.60;99.90;;;;;;15201008;23;20029;-37
2023/01/22 11:52:02;;;;;;;18.13;8.98;;;1.60;99.90;;;;;;15197881;23;20022;-36
2023/01/22 11:58:19;;;;;;;14.70;8.80;;;1.80;99.90;;;;;;15201096;23;20646;-36
2023/01/22 12:05:06;;;;;;;17.27;9.85;;;1.70;99.90;;;;;;15197450;23;20033;-36
2023/01/22 12:11:24;;;;;;;18.17;9.63;;;1.70;99.90;;;;;;15060075;23;20072;-36
2023/01/22 12:17:38;;;;;;;20.13;9.57;;;1.70;99.90;;;;;;15198200;23;20100;-37
2023/01/22 12:23:44;;;;;;;15.60;8.27;;;1.60;99.90;;;;;;15199386;23;20085;-36
2023/01/22 12:30:04;;;;;;;21.83;10.20;;;1.70;99.90;;;;;;15198417;23;20022;-36
2023/01/22 12:36:08;;;;;;;17.83;9.68;;;1.60;99.90;;;;;;15175437;23;20140;-36
2023/01/22 12:42:33;;;;;;;19.60;10.70;;;1.60;99.90;;;;;;15201473;23;20022;-36
2023/01/22 12:49:04;;;;;;;15.45;8.48;;;1.40;99.90;;;;;;15194511;23;20388;-36
2023/01/22 12:55:40;;;;;;;19.92;10.30;;;1.30;99.90;;;;;;15172038;23;20420;-36
2023/01/22 13:01:44;;;;;;;25.33;10.02;;;1.20;99.90;;;;;;15202672;23;20077;-37
2023/01/22 13:07:48;;;;;;;15.50;9.52;;;1.30;99.90;;;;;;15190999;23;20033;-36
2023/01/22 13:13:58;;;;;;;15.67;8.60;;;1.10;99.90;;;;;;15196336;23;20116;-37
2023/01/22 13:20:18;;;;;;;29.40;10.53;;;1.10;99.90;;;;;;15202584;23;20104;-36
2023/01/22 13:26:24;;;;;;;23.42;10.65;;;1.10;99.90;;;;;;15201793;23;20022;-36
2023/01/22 13:32:28;;;;;;;24.88;12.00;;;1.10;99.90;;;;;;15201421;23;20044;-37
2023/01/22 13:38:33;;;;;;;20.40;10.73;;;1.00;99.90;;;;;;15171055;23;20104;-36
2023/01/22 13:44:39;;;;;;;23.05;11.10;;;1.20;99.90;;;;;;15202500;23;20029;-35
2023/01/22 13:50:46;;;;;;;32.88;11.65;;;1.00;99.90;;;;;;15200995;23;20045;-37
2023/01/22 13:56:48;;;;;;;33.55;11.68;;;1.10;99.90;;;;;;15202241;23;20519;-36
2023/01/22 14:02:50;;;;;;;25.48;9.85;;;1.00;99.90;;;;;;15198913;23;20048;-36
2023/01/22 14:08:54;;;;;;;26.33;10.10;;;1.10;99.90;;;;;;15203568;23;20018;-36
2023/01/22 14:14:56;;;;;;;27.10;11.45;;;1.00;99.90;;;;;;15201330;23;20022;-36
2023/01/22 14:20:58;;;;;;;25.08;9.57;;;1.10;99.90;;;;;;15202932;23;20044;-37
2023/01/22 14:27:00;;;;;;;19.38;9.10;;;1.20;99.90;;;;;;15202979;23;20339;-37
2023/01/22 14:33:02;;;;;;;22.95;10.27;;;1.20;99.90;;;;;;15200586;23;20030;-36
2023/01/22 14:39:04;;;;;;;22.42;11.95;;;1.20;99.90;;;;;;15200380;23;20022;-36
2023/01/22 14:45:08;;;;;;;21.50;11.05;;;1.10;99.90;;;;;;15199257;23;20032;-36
2023/01/22 14:51:11;;;;;;;21.77;10.80;;;1.10;99.90;;;;;;15199583;23;20025;-36
2023/01/22 14:57:13;;;;;;;31.42;11.35;;;1.10;99.90;;;;;;15199667;23;20097;-37
2023/01/22 15:03:14;;;;;;;31.65;11.10;;;1.10;99.90;;;;;;15200974;23;20105;-37
2023/01/22 15:09:16;;;;;;;56.45;14.40;;;1.00;99.90;;;;;;15202978;23;20089;-36
2023/01/22 15:15:24;;;;;;;35.22;11.48;;;1.10;99.90;;;;;;15195282;23;20040;-36
2023/01/22 15:21:25;;;;;;;45.65;11.38;;;1.10;99.90;;;;;;15195619;23;20100;-37
2023/01/22 15:27:27;;;;;;;105.10;14.13;;;1.00;99.90;;;;;;15196714;23;20029;-37
2023/01/22 15:33:29;;;;;;;79.57;13.77;;;1.00;99.90;;;;;;15200294;23;20026;-36
2023/01/22 15:39:32;;;;;;;106.38;15.85;;;1.00;99.90;;;;;;15195891;23;20037;-37
2023/01/22 15:45:34;;;;;;;133.90;16.83;;;0.90;99.90;;;;;;15197965;23;20130;-36
2023/01/22 15:51:36;;;;;;;42.67;12.73;;;0.90;99.90;;;;;;15197000;23;20030;-37
2023/01/22 15:57:39;;;;;;;45.60;12.77;;;0.90;99.90;;;;;;15171209;23;20113;-37
2023/01/22 16:03:41;;;;;;;97.72;16.20;;;0.90;99.90;;;;;;15196919;23;20101;-37
2023/01/22 16:09:43;;;;;;;63.15;12.70;;;1.00;99.90;;;;;;15200039;23;20045;-37
2023/01/22 16:15:54;;;;;;;128.48;16.10;;;0.90;99.90;;;;;;15171880;23;20041;-37
2023/01/22 16:21:56;;;;;;;78.57;15.48;;;1.00;99.90;;;;;;15198875;23;20022;-37
2023/01/22 16:27:58;;;;;;;25.38;11.80;;;1.00;99.90;;;;;;15199297;23;20022;-37
2023/01/22 16:34:06;;;;;;;45.22;13.73;;;1.00;99.90;;;;;;15199299;23;20025;-37
2023/01/22 16:40:09;;;;;;;43.70;14.10;;;1.00;99.90;;;;;;15203375;23;20160;-37
2023/01/22 16:46:12;;;;;;;29.83;13.77;;;1.00;99.90;;;;;;15200733;23;20022;-37
2023/01/22 16:52:14;;;;;;;38.05;14.50;;;1.00;99.90;;;;;;15207408;23;20029;-37
2023/01/22 16:58:23;;;;;;;34.95;14.00;;;1.00;99.90;;;;;;15206951;23;20473;-37
2023/01/22 17:04:26;;;;;;;29.58;13.95;;;1.00;99.90;;;;;;15204728;23;20029;-37
2023/01/22 17:10:28;;;;;;;19.35;11.30;;;1.00;99.90;;;;;;15204236;23;20145;-37
2023/01/22 17:16:30;;;;;;;21.63;12.00;;;1.10;99.90;;;;;;15202240;23;20029;-37
2023/01/22 17:22:34;;;;;;;28.65;13.10;;;1.00;99.90;;;;;;15201613;23;20118;-37
2023/01/22 17:28:38;;;;;;;24.23;11.57;;;1.10;99.90;;;;;;15202097;23;20459;-37
2023/01/22 17:34:40;;;;;;;25.85;13.40;;;1.10;99.90;;;;;;15197618;23;20266;-37
2023/01/22 17:40:43;;;;;;;27.30;13.23;;;1.10;99.90;;;;;;15206112;23;20026;-37
2023/01/22 17:46:47;;;;;;;23.55;12.15;;;1.10;99.90;;;;;;15179570;23;20111;-37
2023/01/22 17:52:50;;;;;;;44.78;22.10;;;1.10;99.90;;;;;;15205118;23;20030;-37
2023/01/22 17:58:59;;;;;;;38.00;16.42;;;1.00;99.90;;;;;;15204942;23;20362;-37
2023/01/22 18:05:01;;;;;;;25.70;12.88;;;1.00;99.90;;;;;;15203183;23;20029;-37
2023/01/22 18:11:08;;;;;;;31.48;13.48;;;1.10;99.90;;;;;;15201290;23;20090;-37
2023/01/22 18:17:10;;;;;;;25.17;12.60;;;1.10;99.90;;;;;;15203933;23;20033;-37
2023/01/22 18:23:13;;;;;;;23.65;12.38;;;1.10;99.90;;;;;;15201031;23;20025;-37
2023/01/22 18:29:15;;;;;;;29.88;14.68;;;1.10;99.90;;;;;;15200698;23;20108;-37
2023/01/22 18:35:17;;;;;;;34.53;14.77;;;1.10;99.90;;;;;;15201832;23;20029;-37
2023/01/22 18:41:25;;;;;;;34.70;15.75;;;1.10;99.90;;;;;;15178788;23;20493;-37
2023/01/22 18:47:27;;;;;;;31.92;13.07;;;1.10;99.90;;;;;;15202294;23;20022;-36
2023/01/22 18:53:31;;;;;;;33.97;14.70;;;1.10;99.90;;;;;;15202297;23;20034;-37
2023/01/22 18:59:32;;;;;;;48.33;16.47;;;1.10;99.90;;;;;;15204752;23;20494;-37
2023/01/22 19:05:38;;;;;;;42.60;15.48;;;1.10;99.90;;;;;;15200831;23;20105;-37
2023/01/22 19:11:45;;;;;;;46.47;15.38;;;1.10;99.90;;;;;;15196697;23;20474;-37
2023/01/22 19:17:47;;;;;;;36.55;15.13;;;1.10;99.90;;;;;;15200526;23;20030;-37
2023/01/22 19:23:52;;;;;;;28.45;14.05;;;1.10;99.90;;;;;;15200536;23;20030;-38
2023/01/22 19:29:54;;;;;;;;;;;1.10;99.90;;;;;;15177780;23;20104;-37
2023/01/22 19:35:56;;;;;;;37.25;14.90;;;1.10;99.90;;;;;;15201147;23;19944;-37
2023/01/22 19:42:01;;;;;;;58.67;15.63;;;1.10;99.90;;;;;;15199588;23;20096;-37
2023/01/22 19:48:06;;;;;;;47.17;15.77;;;1.10;99.90;;;;;;15202330;23;20018;-36
2023/01/22 19:54:09;;;;;;;41.15;15.05;;;1.10;99.90;;;;;;15200456;23;20161;-37
2023/01/22 20:00:11;;;;;;;51.33;16.98;;;1.20;99.90;;;;;;15199157;23;20030;-37
2023/01/22 20:06:15;;;;;;;38.15;15.77;;;1.10;99.90;;;;;;15198810;23;20022;-36
2023/01/22 20:12:17;;;;;;;85.35;18.42;;;1.10;99.90;;;;;;15196880;23;20443;-37
2023/01/22 20:18:19;;;;;;;53.40;17.33;;;1.10;99.90;;;;;;15202463;23;20090;-37
2023/01/22 20:24:21;;;;;;;44.22;16.75;;;1.10;99.90;;;;;;15174700;23;20022;-37
2023/01/22 20:30:22;;;;;;;44.22;16.67;;;1.10;99.90;;;;;;15202594;23;20057;-37
2023/01/22 20:36:28;;;;;;;40.80;16.17;;;1.10;99.90;;;;;;15203635;23;20120;-37
2023/01/22 20:42:30;;;;;;;45.28;16.50;;;1.10;99.90;;;;;;15183626;23;20069;-37
2023/01/22 20:48:33;;;;;;;44.42;16.35;;;1.10;99.90;;;;;;15204280;23;20053;-37
2023/01/22 20:54:35;;;;;;;56.47;16.85;;;1.10;99.90;;;;;;15205948;23;20846;-37
2023/01/22 21:00:51;;;;;;;51.33;17.75;;;1.10;99.90;;;;;;15206188;23;20388;-37
2023/01/22 21:06:53;;;;;;;47.00;17.27;;;1.10;99.90;;;;;;15210836;23;20025;-37
2023/01/22 21:12:54;;;;;;;36.40;15.57;;;1.10;99.90;;;;;;15204884;23;20028;-37
2023/01/22 21:19:04;;;;;;;43.55;17.35;;;1.10;99.90;;;;;;15205892;23;20026;-37
2023/01/22 21:25:06;;;;;;;50.95;18.23;;;1.10;99.90;;;;;;15203245;23;20415;-37
2023/01/22 21:31:11;;;;;;;63.00;18.15;;;1.10;99.90;;;;;;15204791;23;20101;-37
2023/01/22 21:37:13;;;;;;;42.80;16.20;;;1.00;99.90;;;;;;15202755;23;20104;-36
2023/01/22 21:49:35;;;;;;;41.85;16.58;;;1.00;99.90;;;;;;15202020;23;20477;-36
2023/01/22 21:55:37;;;;;;;47.65;16.27;;;1.10;99.90;;;;;;15204170;23;20034;-36
2023/01/22 22:01:40;;;;;;;44.90;16.60;;;1.10;99.90;;;;;;15204464;23;20029;-36
2023/01/22 22:07:42;;;;;;;43.05;17.67;;;1.00;99.90;;;;;;15202965;23;20022;-36
2023/01/22 22:13:44;;;;;;;40.85;16.20;;;1.10;99.90;;;;;;15199289;23;20030;-36
2023/01/22 22:19:46;;;;;;;43.88;16.50;;;1.10;99.90;;;;;;15203734;23;20045;-36
2023/01/22 22:25:48;;;;;;;46.40;16.40;;;1.00;99.90;;;;;;15177054;23;20026;-36
2023/01/22 22:31:50;;;;;;;41.22;15.93;;;1.00;99.90;;;;;;15199251;23;20026;-37
2023/01/22 22:37:52;;;;;;;62.72;17.45;;;1.10;99.90;;;;;;15202133;23;20665;-37
2023/01/22 22:43:55;;;;;;;29.95;14.30;;;1.10;99.90;;;;;;15201279;23;20475;-37
2023/01/22 22:49:56;;;;;;;37.97;15.00;;;1.10;99.90;;;;;;15202518;23;20022;-36
2023/01/22 22:55:58;;;;;;;29.23;13.88;;;1.10;99.90;;;;;;15200903;23;20120;-37
2023/01/22 23:02:00;;;;;;;38.30;15.27;;;1.10;99.90;;;;;;15199235;23;20049;-37
2023/01/22 23:08:02;;;;;;;59.25;15.73;;;1.10;99.90;;;;;;15202058;23;20108;-36
2023/01/22 23:14:05;;;;;;;71.68;18.40;;;1.10;99.90;;;;;;15200697;23;20124;-36
2023/01/22 23:20:07;;;;;;;76.70;18.67;;;1.10;99.90;;;;;;15205740;23;20026;-36
2023/01/22 23:26:12;;;;;;;146.40;20.40;;;1.10;99.90;;;;;;15138065;23;20479;-36
2023/01/22 23:32:14;;;;;;;;;;;1.10;99.90;;;;;;15202202;23;20100;-37
2023/01/22 23:38:16;;;;;;;84.88;18.23;;;1.20;99.90;;;;;;15201728;23;19924;-36
2023/01/22 23:44:18;;;;;;;52.88;16.38;;;1.10;99.90;;;;;;15201077;23;20026;-37
2023/01/22 23:50:20;;;;;;;45.75;16.60;;;1.20;99.90;;;;;;15200861;23;20025;-36
2023/01/22 23:56:25;;;;;;;48.38;15.88;;;1.20;99.90;;;;;;15176601;23;20129;-36
